Latest Coastal Weather Observations for Cape Grim

IDV60701

Issued at 9:52 am EST Monday 20 May 2024 (issued every 10 minutes, with the page automatically refreshed every 10 minutes)

About coastal observations | Map of coastal stations | Coastal observations for VIC | Marine services | Other Formats
Station Details ID: 091331 Name: CAPE GRIM Lat: -40.68 Lon: 144.69 Height: 86.0 m
Data from the previous 72 hours. | See also: Recent months at Cape Grim
Date/Time
EST
Wind Sea
Height
m
Swell Vis
km
Cloud Weather Temp
°C
Press
MSL
hPa
Rain since
9am
mm
Dir  Spd
kts
Gust
kts
Height
m
Period
s
Dir
20/09:30am S 11 15 - - - - - - - 10.3 1027.9 0.0
20/09:00am SSE 9 13 - - - - - - - 9.8 1027.7 0.8
20/08:30am S 9 13 - - - - - Partly cloudy - 9.6 1027.4 0.8
20/08:00am S 11 14 - - - - - Partly cloudy - 9.4 1027.0 0.8
20/07:30am S 13 16 - - - - - - - 9.2 1026.6 0.8
20/07:00am S 13 17 - - - - - - - 8.9 1026.2 0.8
20/06:30am S 11 16 - - - - - - - 9.2 1025.9 0.8
20/06:00am S 13 17 - - - - - Partly cloudy - 9.7 1025.8 0.8
20/05:30am S 13 17 - - - - - - - 9.5 1025.3 0.8
20/05:00am S 10 13 - - - - - - - 9.2 1024.8 0.8
20/04:30am S 11 14 - - - - - - - 9.1 1024.5 0.8
20/04:00am S 9 13 - - - - - - - 8.7 1024.3 0.8
20/03:30am S 9 12 - - - - - - - 8.9 1024.2 0.8
20/03:00am S 10 14 - - - - - - - 9.2 1024.0 0.8
20/02:30am SSE 11 15 - - - - - Partly cloudy - 9.0 1023.9 0.8
20/02:00am SSE 11 15 - - - - - Partly cloudy - 8.8 1023.8 0.8
20/01:30am SSE 8 12 - - - - - Partly cloudy - 8.8 1023.7 0.8
20/01:00am SSE 10 14 - - - - - Partly cloudy - 9.2 1023.7 0.8
20/12:30am S 9 13 - - - - - Partly cloudy - 9.7 1023.9 0.8
20/12:00am S 7 11 - - - - - Cloudy Recent precip. 9.7 1023.9 0.6
 
Date/Time
EST
Wind Sea
Height
m
Swell Vis
km
Cloud Weather Temp
°C
Press
MSL
hPa
Rain since
9am
mm
Dir  Spd
kts
Gust
kts
Height
m
Period
s
Dir
19/11:30pm SSE 9 13 - - - - - Partly cloudy - 9.7 1023.8 0.6
19/11:00pm SSE 9 12 - - - - - Partly cloudy - 9.4 1023.5 0.4
19/10:30pm S 10 13 - - - - - Partly cloudy - 9.5 1023.3 0.4
19/10:00pm S 8 12 - - - - - Partly cloudy - 9.8 1023.3 0.4
19/09:30pm S 9 11 - - - - - Partly cloudy - 10.1 1023.1 0.4
19/09:00pm SSE 9 14 - - - - - Cloudy - 10.1 1022.8 0.4
19/08:30pm S 10 14 - - - - - Partly cloudy - 10.6 1022.6 0.4
19/08:00pm S 11 14 - - - - - Partly cloudy - 11.0 1022.3 0.4
19/07:30pm SSW 15 20 - - - - - Partly cloudy - 11.8 1022.0 0.4
19/07:00pm SW 16 22 - - - - - Partly cloudy - 11.9 1021.6 0.4
19/06:30pm SW 16 22 - - - - - Partly cloudy - 11.6 1021.3 0.4
19/06:00pm SSW 14 20 - - - - - Cloudy - 11.5 1020.9 0.4
19/05:30pm SSW 16 22 - - - - - Partly cloudy - 11.2 1020.6 0.4
19/05:23pm SSW 16 26 - - - - - Partly cloudy - 11.2 1020.6 0.4
19/05:00pm SW 17 26 - - - - - Partly cloudy - 11.0 1020.5 0.4
19/04:30pm SSW 16 21 - - - - - Partly cloudy - 11.4 1020.3 0.4
19/04:00pm SW 21 27 - - - - - Partly cloudy - 11.2 1020.1 0.4
19/03:30pm SW 19 25 - - - - - Partly cloudy - 11.8 1019.9 0.4
19/03:00pm SW 22 26 - - - - - Cloudy - 11.8 1019.7 0.4
19/02:30pm SW 23 29 - - - - - Partly cloudy - 11.6 1019.6 0.4
19/02:00pm SW 17 23 - - - - - Partly cloudy - 12.3 1019.6 0.4
19/01:30pm SW 19 25 - - - - - Partly cloudy - 12.4 1019.7 0.4
19/01:09pm SSW 16 27 - - - - - Partly cloudy - 12.1 1019.8 0.4
19/01:00pm SSW 16 21 - - - - - Partly cloudy - 12.4 1019.8 0.4
19/12:30pm SW 19 24 - - - - - Partly cloudy - 12.7 1020.0 0.4
19/12:00pm SW 20 25 - - - - - Partly cloudy - 12.9 1020.1 0.4
19/11:30am SW 21 27 - - - - - Partly cloudy - 11.8 1020.2 0.4
19/11:00am SW 22 30 - - - - - Partly cloudy - 11.3 1020.4 0.4
19/10:36am SW 20 30 - - - - - Partly cloudy - 11.3 1020.3 0.2
19/10:30am SW 22 30 - - - - - Partly cloudy - 11.5 1020.2 0.2
19/10:01am SW 24 34 - - - - - Partly cloudy - 12.4 1019.9 0.0
19/10:00am SW 25 34 - - - - - Partly cloudy - 12.3 1020.0 0.0
19/09:36am SW 25 35 - - - - - Partly cloudy - 11.9 1019.7 0.0
19/09:30am SW 26 32 - - - - - Partly cloudy - 12.3 1019.7 0.0
19/09:00am SW 25 35 - - - - - Partly cloudy - 13.0 1019.5 1.0
19/08:33am SW 29 39 - - - - - Partly cloudy - 12.5 1019.1 1.0
19/08:30am SW 31 39 - - - - - Partly cloudy - 12.4 1019.3 1.0
19/08:00am SW 28 37 - - - - - Partly cloudy - 12.2 1019.1 1.0
19/07:42am SW 28 38 - - - - - Partly cloudy - 12.1 1018.9 1.0
19/07:30am SW 29 36 - - - - - Partly cloudy - 12.5 1018.8 1.0
19/07:00am SW 26 33 - - - - - Partly cloudy - 12.6 1018.7 1.0
19/06:36am SW 24 32 - - - - - Partly cloudy - 12.4 1018.6 1.0
19/06:30am SW 27 38 - - - - - Partly cloudy - 12.2 1018.6 1.0
19/06:15am SW 25 36 - - - - - Partly cloudy - 12.6 1018.5 1.0
19/06:12am SW 25 36 - - - - - Partly cloudy - 12.2 1018.6 1.0
19/06:00am SW 25 36 - - - - - Cloudy Recent precip. 11.7 1018.7 1.0
19/05:55am WSW 21 36 - - - - - Partly cloudy - 12.3 1018.7 1.0
19/05:52am WSW 21 34 - - - - - Partly cloudy - 12.4 1018.5 1.0
19/05:42am WSW 20 31 - - - - - Partly cloudy - 12.8 1018.6 0.6
19/05:41am WSW 20 31 - - - - - Partly cloudy - 12.7 1018.5 0.6
19/05:30am WSW 18 31 - - - - - Partly cloudy - 13.1 1018.5 0.6
19/05:00am W 20 31 - - - - - Partly cloudy - 12.9 1018.6 0.4
19/04:30am WSW 18 33 - - - - - Partly cloudy - 12.7 1018.7 0.4
19/04:00am W 21 32 - - - - - Partly cloudy - 12.7 1019.0 0.2
19/03:30am W 24 36 - - - - - Partly cloudy - 12.4 1019.3 0.2
19/03:23am W 23 36 - - - - - Partly cloudy - 12.1 1019.4 0.2
19/03:13am W 23 31 - - - - - Partly cloudy - 12.3 1019.6 0.2
19/03:08am W 23 33 - - - - - Partly cloudy - 12.1 1019.7 0.2
19/03:00am W 23 34 - - - - - Cloudy - 12.3 1019.8 0.2
19/02:56am W 23 34 - - - - - Partly cloudy - 12.1 1019.9 0.2
19/02:30am W 22 32 - - - - - Partly cloudy - 12.4 1020.2 0.2
19/02:06am W 21 31 - - - - - Partly cloudy - 12.6 1020.4 0.2
19/02:00am W 22 31 - - - - - Partly cloudy - 12.8 1020.5 0.2
19/01:30am W 21 32 - - - - - Partly cloudy - 12.0 1020.8 0.2
19/01:21am W 21 32 - - - - - Partly cloudy - 12.2 1021.0 0.0
19/01:00am W 21 30 - - - - - Partly cloudy - 12.2 1021.4 0.0
19/12:30am W 21 31 - - - - - Partly cloudy - 12.3 1021.8 0.0
19/12:00am W 21 32 - - - - - Cloudy - 12.1 1022.5 0.0
 
Date/Time
EST
Wind Sea
Height
m
Swell Vis
km
Cloud Weather Temp
°C
Press
MSL
hPa
Rain since
9am
mm
Dir  Spd
kts
Gust
kts
Height
m
Period
s
Dir
18/11:39pm W 21 31 - - - - - Partly cloudy - 12.2 1023.0 0.0
18/11:30pm W 20 27 - - - - - Partly cloudy - 11.9 1023.2 0.0
18/11:19pm W 19 29 - - - - - Partly cloudy - 11.7 1023.4 0.0
18/11:00pm W 20 29 - - - - - Partly cloudy - 11.1 1023.9 0.0
18/10:30pm W 19 29 - - - - - Partly cloudy - 11.5 1024.5 0.0
18/10:00pm W 18 29 - - - - - Partly cloudy - 11.5 1025.2 0.0
18/09:30pm W 21 32 - - - - - Partly cloudy - 11.0 1025.8 0.0
18/09:00pm W 17 27 - - - - - Cloudy - 11.0 1025.9 0.0
18/08:37pm W 16 28 - - - - - Partly cloudy - 11.5 1026.2 0.0
18/08:30pm W 16 24 - - - - - Partly cloudy - 11.5 1026.4 0.0
18/08:04pm W 16 32 - - - - - Partly cloudy - 11.3 1026.5 0.0
18/08:00pm W 15 22 - - - - - Partly cloudy - 11.2 1026.6 0.0
18/07:33pm W 18 28 - - - - - Partly cloudy - 11.4 1027.1 0.0
18/07:30pm W 17 26 - - - - - Partly cloudy - 11.5 1027.1 0.0
18/07:00pm W 17 29 - - - - - Partly cloudy - 11.1 1027.4 0.0
18/06:50pm W 15 25 - - - - - Partly cloudy - 11.5 1027.8 0.0
18/06:30pm W 18 25 - - - - - Cloudy - 11.4 1027.8 0.0
18/06:00pm W 17 28 - - - - - Cloudy - 11.2 1028.1 0.0
18/05:55pm W 18 28 - - - - - Partly cloudy - 11.2 1028.0 0.0
18/05:30pm W 17 26 - - - - - Partly cloudy - 11.1 1028.5 0.0
18/05:06pm W 15 25 - - - - - Partly cloudy - 11.0 1028.6 0.0
18/05:00pm W 15 23 - - - - - Partly cloudy - 11.3 1028.5 0.0
18/04:30pm W 16 22 - - - - - Partly cloudy - 11.1 1029.1 0.0
18/04:00pm W 14 21 - - - - - Partly cloudy - 10.9 1029.3 0.0
18/03:30pm W 13 19 - - - - - Cloudy - 11.2 1029.4 0.0
18/03:00pm W 13 19 - - - - - Mostly cloudy - 11.4 1029.8 0.0
18/02:30pm W 12 17 - - - - - Cloudy - 11.3 1030.5 0.0
18/02:00pm NW 10 13 - - - - - Cloudy - 11.9 1030.8 0.0
18/01:30pm WNW 9 13 - - - - - Partly cloudy - 11.5 1031.3 0.0
18/01:00pm NW 7 9 - - - - - - - 11.0 1031.7 0.0
18/12:30pm NW 5 7 - - - - - Partly cloudy - 11.2 1032.2 0.0
18/12:00pm WNW 3 7 - - - - - Mostly clear - 11.2 1032.8 0.0
18/11:30am N 3 9 - - - - - Partly cloudy - 11.3 1033.2 0.0
18/11:00am CALM 0 3 - - - - - Partly cloudy - 11.6 1033.6 0.0
18/10:30am ENE 3 5 - - - - - - - 10.3 1033.6 0.0
18/10:00am ENE 4 5 - - - - - - - 9.4 1033.7 0.0
18/09:30am E 5 6 - - - - - - - 9.0 1033.8 0.0
18/09:00am E 7 8 - - - - - - - 7.7 1033.7 1.2
18/08:30am ESE 9 10 - - - - - - - 7.1 1033.8 1.2
18/08:00am ESE 10 10 - - - - - - - 5.2 1033.5 1.2
18/07:30am ESE 10 11 - - - - - - - 4.3 1033.3 1.2
18/07:00am ESE 11 13 - - - - - - - 4.5 1033.2 1.2
18/06:30am ESE 11 12 - - - - - - - 4.1 1033.1 1.2
18/06:00am SE 11 12 - - - - - - - 4.8 1033.0 1.2
18/05:30am SE 12 14 - - - - - - - 5.4 1033.1 1.2
18/05:00am SE 10 13 - - - - - - - 5.4 1032.8 1.2
18/04:30am SE 11 14 - - - - - - - 6.0 1032.3 1.2
18/04:00am SE 14 17 - - - - - - - 6.3 1032.1 1.2
18/03:30am SSE 13 18 - - - - - - - 6.7 1032.3 1.2
18/03:00am S 12 15 - - - - - - - 6.2 1032.8 1.2
18/02:30am SSE 13 18 - - - - - - - 6.1 1032.4 1.2
18/02:00am SSE 11 14 - - - - - - - 5.2 1032.2 1.2
18/01:30am SE 11 16 - - - - - - - 6.0 1031.9 1.2
18/01:00am SSE 14 20 - - - - - - - 6.5 1031.8 1.2
18/12:30am SSE 13 19 - - - - - - - 6.6 1031.9 1.2
18/12:00am SSE 11 14 - - - - - - - 6.0 1031.7 1.2
 
Date/Time
EST
Wind Sea
Height
m
Swell Vis
km
Cloud Weather Temp
°C
Press
MSL
hPa
Rain since
9am
mm
Dir  Spd
kts
Gust
kts
Height
m
Period
s
Dir
17/11:30pm SSE 14 18 - - - - - Partly cloudy - 7.0 1031.6 1.2
17/11:00pm S 15 21 - - - - - - - 7.9 1031.2 1.2
17/10:30pm S 17 24 - - - - - Partly cloudy - 8.4 1030.9 1.2
17/10:01pm S 16 26 - - - - - - - 9.1 1030.4 1.2
17/10:00pm S 16 25 - - - - - - - 9.0 1030.4 1.2
17/09:30pm S 17 29 - - - - - Partly cloudy - 8.4 1030.3 1.2
17/09:00pm S 21 32 - - - - - Partly cloudy - 9.3 1029.7 1.2
17/08:32pm S 19 29 - - - - - Partly cloudy - 8.9 1029.5 1.2
17/08:30pm S 20 29 - - - - - Partly cloudy - 8.9 1029.5 1.2
17/08:19pm S 19 30 - - - - - Partly cloudy - 8.9 1029.2 1.2
17/08:00pm S 15 19 - - - - - Partly cloudy - 8.1 1029.3 1.2
17/07:30pm S 24 37 - - - - - Partly cloudy - 8.5 1028.7 1.2
17/07:04pm SSW 26 36 - - - - - Partly cloudy - 10.1 1028.1 1.2
17/07:00pm SSW 27 36 - - - - - Partly cloudy - 9.9 1027.9 1.2
17/06:31pm SSW 26 37 - - - - - Partly cloudy - 9.5 1027.6 1.2
17/06:30pm SSW 26 37 - - - - - Partly cloudy - 9.6 1027.6 1.2
17/06:00pm SW 28 38 - - - - - Cloudy Recent precip. 9.2 1027.2 1.2
17/05:43pm SW 28 44 - - - - - Partly cloudy - 8.5 1027.0 1.2
17/05:41pm SSW 27 36 - - - - - Partly cloudy - 8.4 1027.1 1.0
17/05:30pm SSW 27 39 - - - - - Partly cloudy - 8.4 1026.9 0.8
17/05:00pm SSW 27 41 - - - - - Partly cloudy - 10.3 1026.1 0.0
17/04:30pm SW 27 41 - - - - - Partly cloudy - 11.1 1025.8 0.0
17/04:05pm SW 27 37 - - - - - Partly cloudy - 11.0 1025.5 0.0
17/04:00pm SW 30 37 - - - - - Partly cloudy - 11.1 1025.4 0.0
17/03:30pm SW 29 39 - - - - - Partly cloudy - 11.0 1024.8 0.0
17/03:00pm SW 30 40 - - - - - Cloudy - 11.2 1024.3 0.0
17/02:37pm SW 31 41 - - - - - Partly cloudy - 11.5 1024.1 0.0
17/02:30pm SW 33 41 - - - - - Partly cloudy - 11.7 1024.1 0.0
17/02:00pm SW 30 41 - - - - - Partly cloudy - 12.1 1023.8 0.0
17/01:32pm SW 27 37 - - - - - Partly cloudy - 12.4 1023.6 0.0
17/01:30pm SW 28 37 - - - - - Partly cloudy - 12.3 1023.6 0.0
17/01:00pm SW 28 34 - - - - - Partly cloudy - 12.5 1023.7 0.0
17/12:30pm SW 26 32 - - - - - Partly cloudy - 12.5 1023.5 0.0
17/12:07pm SW 27 37 - - - - - Partly cloudy - 12.3 1023.8 0.0
17/12:00pm SW 28 37 - - - - - Partly cloudy - 12.2 1023.7 0.0
17/11:30am SW 25 33 - - - - - Partly cloudy - 11.9 1024.0 0.0
17/11:00am SW 27 38 - - - - - Partly cloudy - 12.2 1023.9 0.0
17/10:36am SW 29 39 - - - - - Partly cloudy - 11.9 1023.7 0.0
17/10:30am SW 28 36 - - - - - Partly cloudy - 11.9 1023.7 0.0
17/10:00am SW 31 39 - - - - - Partly cloudy - 11.9 1023.5 0.0

Other formats

Comma delimited format used in spreadsheet applications
http://www.bom.gov.au/fwo/IDV60701/IDV60701.95954.axf

JavaScript Object Notation format (JSON) in row-major order
http://www.bom.gov.au/fwo/IDV60701/IDV60701.95954.json

Data quality

Most of these data are generated automatically and are frequently updated. Quality checks on data are not normally performed. It is possible for incorrect values to appear. Refer to information at About Latest Weather Observations and please check the disclaimer before using these data.